Time;durP1;ratioP1;P1;durP2;ratioP2;P2;SDS_P1;SDS_P2;PMS_P1;PMS_P2;Temp;Humidity;BMP_temperature;BMP_pressure;BME280_temperature;BME280_humidity;BME280_pressure;Samples;Min_cycle;Max_cycle;Signal;HPM_P1;HPM_P2
2021/12/31 00:02:17;;;;;;;4.13;1.90;;;12.20;99.90;;;;;;5044907;28;20438;-81
2021/12/31 00:04:43;;;;;;;5.18;1.65;;;12.20;99.90;;;;;;5049201;28;20044;-80
2021/12/31 00:07:09;;;;;;;2.17;1.35;;;12.30;99.90;;;;;;5017457;28;20076;-84
2021/12/31 00:09:36;;;;;;;8.48;1.80;;;12.30;99.90;;;;;;5028236;28;20041;-82
2021/12/31 00:12:07;;;;;;;6.53;1.83;;;12.30;99.90;;;;;;5047309;28;20497;-79
2021/12/31 00:14:34;;;;;;;8.85;1.35;;;12.20;99.90;;;;;;5048887;28;20055;-80
2021/12/31 00:17:00;;;;;;;9.48;1.90;;;12.30;99.90;;;;;;5058362;28;20052;-82
2021/12/31 00:19:29;;;;;;;10.23;2.05;;;12.20;99.90;;;;;;5048650;28;20444;-83
2021/12/31 00:21:55;;;;;;;1.80;1.33;;;12.20;99.90;;;;;;5030711;28;20057;-80
2021/12/31 00:24:23;;;;;;;2.92;1.33;;;12.20;99.90;;;;;;5014346;28;20064;-81
2021/12/31 00:26:49;;;;;;;3.45;1.48;;;12.10;99.90;;;;;;5044395;28;20045;-81
2021/12/31 00:29:15;;;;;;;7.38;2.10;;;12.10;99.90;;;;;;5039422;28;20048;-81
2021/12/31 00:31:40;;;;;;;1.02;0.90;;;12.10;99.90;;;;;;5049852;28;20681;-80
2021/12/31 00:34:06;;;;;;;2.33;1.10;;;12.10;99.90;;;;;;5042355;28;20049;-82
2021/12/31 00:36:44;;;;;;;5.85;2.00;;;12.00;99.90;;;;;;5046319;28;20037;-80
2021/12/31 00:39:11;;;;;;;2.58;1.33;;;12.00;99.90;;;;;;5045409;28;20109;-81
2021/12/31 00:41:36;;;;;;;4.68;1.48;;;12.00;99.90;;;;;;5046708;28;20037;-82
2021/12/31 00:44:02;;;;;;;5.78;1.65;;;12.00;99.90;;;;;;5049306;28;20390;-80
2021/12/31 00:46:33;;;;;;;3.10;1.70;;;11.90;99.90;;;;;;5047783;28;20356;-79
2021/12/31 00:49:02;;;;;;;3.15;1.50;;;11.90;99.90;;;;;;5046317;28;20064;-83
2021/12/31 00:51:28;;;;;;;4.00;1.63;;;11.90;99.90;;;;;;5047367;28;20394;-81
2021/12/31 00:53:53;;;;;;;;;;;11.90;99.90;;;;;;5068982;28;20073;-80
2021/12/31 00:56:19;;;;;;;8.30;1.17;;;11.90;99.90;;;;;;5051260;28;20009;-81
2021/12/31 00:58:46;;;;;;;2.72;1.45;;;11.90;99.90;;;;;;5044386;28;20517;-81
2021/12/31 01:01:17;;;;;;;4.97;2.05;;;11.80;99.90;;;;;;5024672;28;20041;-83
2021/12/31 01:03:43;;;;;;;3.10;1.48;;;11.80;99.90;;;;;;5075424;28;20116;-81
2021/12/31 01:06:09;;;;;;;4.93;2.15;;;11.80;99.90;;;;;;5043748;28;20159;-79
2021/12/31 01:08:35;;;;;;;4.40;1.67;;;11.80;99.90;;;;;;5049383;28;20530;-80
2021/12/31 01:11:01;;;;;;;1.33;1.23;;;11.80;99.90;;;;;;5034384;28;20041;-82
2021/12/31 01:13:35;;;;;;;7.90;1.95;;;11.80;99.90;;;;;;5031714;28;20041;-83
2021/12/31 01:16:02;;;;;;;2.20;1.23;;;11.80;99.90;;;;;;5047045;28;20375;-80
2021/12/31 01:21:20;;;;;;;1.60;1.15;;;11.90;99.90;;;;;;5011434;28;20149;-80
2021/12/31 01:23:47;;;;;;;13.70;2.08;;;11.90;99.90;;;;;;5048387;28;20060;-81
2021/12/31 01:26:13;;;;;;;2.72;1.33;;;11.90;99.90;;;;;;5050339;28;20095;-81
2021/12/31 01:28:38;;;;;;;;;;;11.90;99.90;;;;;;5050674;28;20047;-83
2021/12/31 01:31:04;;;;;;;3.83;1.23;;;11.90;99.90;;;;;;5070683;28;20305;-80
2021/12/31 01:33:30;;;;;;;7.10;2.03;;;11.90;99.90;;;;;;5048386;28;20530;-80
2021/12/31 01:35:56;;;;;;;;;;;11.90;99.90;;;;;;5024287;28;20064;-79
2021/12/31 01:38:22;;;;;;;2.75;1.25;;;12.00;99.90;;;;;;5048636;28;19956;-82
2021/12/31 01:40:49;;;;;;;5.07;1.35;;;12.00;99.90;;;;;;5047698;28;20052;-81
2021/12/31 01:43:16;;;;;;;4.75;1.77;;;12.10;99.90;;;;;;5043678;28;20037;-83
2021/12/31 01:45:47;;;;;;;6.47;1.50;;;12.10;99.90;;;;;;5048964;28;20059;-83
2021/12/31 01:48:25;;;;;;;1.45;1.10;;;12.10;99.90;;;;;;5023125;28;20064;-80
2021/12/31 01:50:51;;;;;;;10.32;3.15;;;12.10;99.90;;;;;;5043979;28;20041;-81
2021/12/31 01:53:19;;;;;;;6.82;2.10;;;12.10;99.90;;;;;;5045046;28;20045;-80
2021/12/31 01:55:46;;;;;;;6.30;2.13;;;12.20;99.90;;;;;;5025394;28;20044;-79
2021/12/31 01:58:15;;;;;;;5.22;1.63;;;12.20;99.90;;;;;;5043548;28;20045;-82
2021/12/31 02:00:40;;;;;;;6.40;1.52;;;12.30;99.90;;;;;;5019960;28;20034;-81
2021/12/31 02:03:06;;;;;;;6.13;2.30;;;12.20;99.90;;;;;;5039898;28;20052;-83
2021/12/31 02:05:32;;;;;;;8.15;2.03;;;12.20;99.90;;;;;;5045790;28;20510;-81
2021/12/31 02:07:59;;;;;;;4.60;1.95;;;12.30;99.90;;;;;;5047569;28;20045;-80
2021/12/31 02:10:25;;;;;;;5.78;1.95;;;12.40;99.90;;;;;;5047292;28;20048;-82
2021/12/31 02:12:53;;;;;;;2.42;1.40;;;12.40;99.90;;;;;;5032282;28;20040;-82
2021/12/31 02:15:20;;;;;;;4.70;1.52;;;12.40;99.90;;;;;;5047237;28;20052;-83
2021/12/31 02:17:48;;;;;;;3.20;1.45;;;12.40;99.90;;;;;;5049533;28;20065;-80
2021/12/31 02:20:18;;;;;;;4.50;1.85;;;12.30;99.90;;;;;;5049570;28;20029;-82
2021/12/31 02:23:04;;;;;;;8.38;1.30;;;12.30;99.90;;;;;;5048905;28;20045;-82
2021/12/31 02:25:31;;;;;;;2.10;1.38;;;12.30;99.90;;;;;;5076181;28;20052;-80
2021/12/31 02:27:57;;;;;;;2.38;1.48;;;12.30;99.90;;;;;;5061492;28;20044;-80
2021/12/31 02:30:22;;;;;;;5.90;2.30;;;12.30;99.90;;;;;;5035530;28;20048;-79
2021/12/31 02:32:49;;;;;;;6.63;2.25;;;12.30;99.90;;;;;;5048490;28;20067;-80
2021/12/31 02:35:16;;;;;;;2.85;1.27;;;12.30;99.90;;;;;;5023449;28;20179;-82
2021/12/31 02:37:42;;;;;;;2.53;1.67;;;12.20;99.90;;;;;;5055613;28;20056;-82
2021/12/31 02:40:12;;;;;;;4.28;1.77;;;12.20;99.90;;;;;;5055534;28;20036;-82
2021/12/31 02:42:39;;;;;;;6.05;2.13;;;12.20;99.90;;;;;;5069735;28;20041;-79
2021/12/31 02:45:07;;;;;;;2.83;1.70;;;12.30;99.90;;;;;;5080816;28;20053;-81
2021/12/31 02:47:34;;;;;;;5.65;2.55;;;12.30;99.90;;;;;;5033218;28;20079;-82
2021/12/31 02:50:03;;;;;;;4.95;1.73;;;12.30;99.90;;;;;;5046554;28;20041;-81
2021/12/31 02:52:29;;;;;;;5.72;1.80;;;12.40;99.90;;;;;;5052249;28;20072;-82
2021/12/31 02:54:57;;;;;;;3.08;1.73;;;12.30;99.90;;;;;;5048941;28;20091;-80
2021/12/31 02:57:23;;;;;;;7.07;2.25;;;12.40;99.90;;;;;;5046789;28;20482;-79
2021/12/31 02:59:49;;;;;;;5.93;1.42;;;12.40;99.90;;;;;;5049066;28;20038;-79
2021/12/31 03:02:20;;;;;;;;;;;12.40;99.90;;;;;;5046355;28;20503;-82
2021/12/31 03:04:47;;;;;;;3.40;1.58;;;12.40;99.90;;;;;;5061757;28;19917;-83
2021/12/31 03:07:14;;;;;;;2.60;1.75;;;12.30;99.90;;;;;;5065916;28;20075;-84
2021/12/31 03:09:46;;;;;;;8.43;2.33;;;12.30;99.90;;;;;;5058341;28;20045;-80
2021/12/31 03:12:13;;;;;;;1.15;1.05;;;12.30;99.90;;;;;;5034183;28;20040;-82
2021/12/31 03:14:42;;;;;;;2.17;1.33;;;12.30;99.90;;;;;;5047243;28;20422;-84
2021/12/31 03:17:08;;;;;;;3.67;1.60;;;12.40;99.90;;;;;;5048260;28;20094;-82
2021/12/31 03:19:34;;;;;;;1.95;1.65;;;12.40;99.90;;;;;;5046599;28;20497;-84
2021/12/31 03:22:00;;;;;;;3.15;1.13;;;12.40;99.90;;;;;;5047903;28;20425;-84
2021/12/31 03:24:27;;;;;;;2.70;1.65;;;12.40;99.90;;;;;;5051252;28;20118;-82
2021/12/31 03:26:53;;;;;;;4.47;2.20;;;12.40;99.90;;;;;;5049091;28;20045;-82
2021/12/31 03:29:18;;;;;;;3.05;1.40;;;12.40;99.90;;;;;;5032997;28;20044;-82
2021/12/31 03:31:44;;;;;;;4.43;1.60;;;12.40;99.90;;;;;;5031186;28;20067;-82
2021/12/31 03:34:14;;;;;;;4.22;1.55;;;12.50;99.90;;;;;;5064314;28;20059;-85
2021/12/31 03:36:43;;;;;;;3.03;1.23;;;12.60;99.90;;;;;;5047015;28;20426;-83
2021/12/31 03:39:10;;;;;;;2.92;1.40;;;12.50;99.90;;;;;;5069424;28;20056;-82
2021/12/31 03:41:36;;;;;;;5.40;2.30;;;12.60;99.90;;;;;;5046909;28;20445;-81
2021/12/31 03:44:03;;;;;;;;;;;12.60;99.90;;;;;;5032273;28;20047;-81
2021/12/31 03:46:29;;;;;;;4.32;1.85;;;12.60;99.90;;;;;;5056557;28;19978;-80
2021/12/31 03:48:54;;;;;;;3.40;2.17;;;12.60;99.90;;;;;;5044371;28;20084;-82
2021/12/31 03:51:20;;;;;;;3.00;1.27;;;12.50;99.90;;;;;;5026490;28;20041;-80
2021/12/31 03:53:46;;;;;;;4.47;1.98;;;12.50;99.90;;;;;;5029634;28;20132;-83
2021/12/31 03:56:11;;;;;;;3.45;1.60;;;12.50;99.90;;;;;;5047837;28;20059;-80
2021/12/31 03:58:37;;;;;;;1.55;1.35;;;12.50;99.90;;;;;;5033351;28;20033;-82
2021/12/31 04:01:04;;;;;;;6.07;1.33;;;12.50;99.90;;;;;;5011043;28;20051;-82
2021/12/31 04:03:29;;;;;;;6.03;2.28;;;12.40;99.90;;;;;;5043580;28;20045;-81
2021/12/31 04:05:55;;;;;;;1.58;1.30;;;12.40;99.90;;;;;;5043479;28;20041;-79
2021/12/31 04:08:21;;;;;;;3.28;1.95;;;12.50;99.90;;;;;;5044042;28;20120;-82
2021/12/31 04:10:47;;;;;;;5.63;1.63;;;12.50;99.90;;;;;;5014756;28;20041;-82
2021/12/31 04:13:13;;;;;;;;;;;12.60;99.90;;;;;;5048366;28;20049;-83
2021/12/31 04:15:39;;;;;;;4.05;1.25;;;12.60;99.90;;;;;;5046034;28;19963;-81
2021/12/31 04:18:06;;;;;;;1.67;1.35;;;12.60;99.90;;;;;;5050169;28;20475;-83
2021/12/31 04:20:35;;;;;;;2.67;1.50;;;12.60;99.90;;;;;;5059444;28;20041;-82
2021/12/31 04:23:04;;;;;;;1.52;0.82;;;12.60;99.90;;;;;;5029708;28;20122;-80
2021/12/31 04:25:30;;;;;;;4.18;1.65;;;12.60;99.90;;;;;;5049152;28;20044;-83
2021/12/31 04:27:55;;;;;;;3.78;1.60;;;12.60;99.90;;;;;;5046315;28;20041;-82
2021/12/31 04:30:22;;;;;;;2.20;1.42;;;12.70;99.90;;;;;;5031110;28;20052;-80
2021/12/31 04:32:47;;;;;;;;;;;12.70;99.90;;;;;;5047496;28;20049;-80
2021/12/31 04:35:13;;;;;;;4.40;1.90;;;12.70;99.90;;;;;;5058865;28;19917;-83
2021/12/31 04:37:41;;;;;;;4.13;1.65;;;12.80;99.90;;;;;;5039354;28;20132;-82
2021/12/31 04:40:09;;;;;;;1.85;1.50;;;12.70;99.90;;;;;;5048846;28;20045;-81
2021/12/31 04:42:35;;;;;;;2.83;1.60;;;12.70;99.90;;;;;;5067524;28;20428;-82
2021/12/31 04:45:02;;;;;;;4.03;1.73;;;12.70;99.90;;;;;;5048891;28;20077;-80
2021/12/31 04:47:28;;;;;;;4.88;2.30;;;12.70;99.90;;;;;;5047112;28;20415;-79
2021/12/31 04:49:54;;;;;;;5.95;2.38;;;12.70;99.90;;;;;;5042352;28;20032;-82
2021/12/31 04:52:19;;;;;;;8.43;2.58;;;12.80;99.90;;;;;;5042933;28;20047;-81
2021/12/31 04:54:45;;;;;;;5.75;2.08;;;12.80;99.90;;;;;;5027024;28;20495;-82
2021/12/31 04:57:11;;;;;;;3.65;1.40;;;12.80;99.90;;;;;;5025067;28;20123;-80
2021/12/31 04:59:36;;;;;;;4.32;1.48;;;12.90;99.90;;;;;;5032605;28;20052;-83
2021/12/31 05:02:02;;;;;;;4.07;1.65;;;12.90;99.90;;;;;;5020382;28;20072;-84
2021/12/31 05:04:28;;;;;;;2.63;1.42;;;13.00;99.90;;;;;;5049110;28;20385;-82
2021/12/31 05:06:54;;;;;;;5.65;2.22;;;12.90;99.90;;;;;;5052303;28;20071;-81
2021/12/31 05:09:19;;;;;;;4.43;1.70;;;12.90;99.90;;;;;;5030120;28;20482;-82
2021/12/31 05:11:45;;;;;;;3.88;1.77;;;13.00;99.90;;;;;;5045197;28;20051;-85
2021/12/31 05:14:11;;;;;;;1.08;0.98;;;13.00;99.90;;;;;;5025980;28;20049;-82
2021/12/31 05:16:37;;;;;;;1.90;1.30;;;13.00;99.90;;;;;;5047267;28;20576;-82
2021/12/31 05:19:04;;;;;;;2.05;1.38;;;13.00;99.90;;;;;;5031574;28;20066;-86
2021/12/31 05:21:30;;;;;;;2.00;0.95;;;12.90;99.90;;;;;;5028514;28;20099;-82
2021/12/31 05:23:57;;;;;;;9.20;1.85;;;12.90;99.90;;;;;;5044470;28;20208;-84
2021/12/31 05:26:23;;;;;;;2.00;1.25;;;12.90;99.90;;;;;;5045969;28;20045;-84
2021/12/31 05:28:49;;;;;;;3.75;1.67;;;12.80;99.90;;;;;;5032533;28;20453;-81
2021/12/31 05:31:15;;;;;;;4.78;1.42;;;12.80;99.90;;;;;;5046595;28;20083;-84
2021/12/31 05:33:41;;;;;;;2.65;1.63;;;12.80;99.90;;;;;;5059977;28;20045;-83
2021/12/31 05:36:07;;;;;;;1.85;1.25;;;12.80;99.90;;;;;;5027878;28;20033;-83
2021/12/31 05:38:33;;;;;;;1.83;1.10;;;12.80;99.90;;;;;;5041591;28;20033;-85
2021/12/31 05:40:59;;;;;;;4.00;1.40;;;12.70;99.90;;;;;;5047197;28;20091;-85
2021/12/31 05:43:25;;;;;;;2.00;1.33;;;12.70;99.90;;;;;;5047479;28;20041;-83
2021/12/31 05:45:50;;;;;;;1.52;1.35;;;12.70;99.90;;;;;;5049957;28;20045;-82
2021/12/31 05:48:16;;;;;;;4.95;1.63;;;12.70;99.90;;;;;;5045463;28;20044;-82
2021/12/31 05:50:42;;;;;;;1.95;1.17;;;12.60;99.90;;;;;;5056744;28;20044;-81
2021/12/31 05:53:08;;;;;;;2.75;1.48;;;12.60;99.90;;;;;;5041018;28;20151;-79
2021/12/31 05:55:33;;;;;;;3.25;1.85;;;12.60;99.90;;;;;;5051840;28;20080;-83
2021/12/31 05:58:01;;;;;;;3.03;1.85;;;12.60;99.90;;;;;;5051714;28;20135;-85
2021/12/31 06:00:28;;;;;;;1.83;1.48;;;12.60;99.90;;;;;;5055322;28;20068;-81
2021/12/31 06:02:55;;;;;;;3.17;1.92;;;12.60;99.90;;;;;;5049650;28;20080;-83
2021/12/31 06:05:22;;;;;;;1.27;1.02;;;12.60;99.90;;;;;;5051404;28;20348;-82
2021/12/31 06:07:48;;;;;;;1.80;1.33;;;12.60;99.90;;;;;;5050156;28;20099;-83
2021/12/31 06:10:13;;;;;;;2.35;1.55;;;12.60;99.90;;;;;;5049966;28;20441;-83
2021/12/31 06:12:41;;;;;;;2.17;1.33;;;12.70;99.90;;;;;;5019770;28;20044;-82
2021/12/31 06:15:09;;;;;;;1.80;1.30;;;12.70;99.90;;;;;;5032869;28;20056;-83
2021/12/31 06:17:35;;;;;;;2.17;1.33;;;12.80;99.90;;;;;;5051941;28;20474;-83
2021/12/31 06:20:01;;;;;;;7.57;1.67;;;12.80;99.90;;;;;;5070997;28;20040;-84
2021/12/31 06:22:27;;;;;;;3.42;1.80;;;12.80;99.90;;;;;;5050474;28;20052;-84
2021/12/31 06:24:53;;;;;;;4.03;2.33;;;12.80;99.90;;;;;;5031823;28;20048;-80
2021/12/31 06:27:19;;;;;;;1.55;1.38;;;12.80;99.90;;;;;;5026459;28;20527;-84
2021/12/31 06:29:44;;;;;;;1.38;1.20;;;12.90;99.90;;;;;;5043208;28;20070;-84
2021/12/31 06:32:11;;;;;;;2.95;1.75;;;12.80;99.90;;;;;;5049808;28;20037;-84
2021/12/31 06:34:36;;;;;;;;;;;12.80;99.90;;;;;;5045227;28;20053;-85
2021/12/31 06:37:02;;;;;;;2.15;1.52;;;12.80;99.90;;;;;;5052919;28;19917;-84
2021/12/31 06:39:28;;;;;;;2.40;1.50;;;12.80;99.90;;;;;;5046129;28;20115;-83
2021/12/31 06:41:54;;;;;;;5.10;1.90;;;12.70;99.90;;;;;;5039209;28;20127;-81
2021/12/31 06:44:20;;;;;;;2.03;1.27;;;12.70;99.90;;;;;;5049719;28;20037;-83
2021/12/31 06:46:46;;;;;;;1.67;1.13;;;12.70;99.90;;;;;;5045238;28;20390;-85
2021/12/31 06:49:12;;;;;;;1.10;1.00;;;12.70;99.90;;;;;;5048273;28;20501;-83
2021/12/31 06:51:38;;;;;;;1.83;1.48;;;12.80;99.90;;;;;;5051239;28;20081;-84
2021/12/31 06:54:04;;;;;;;;;;;12.70;99.90;;;;;;5048424;28;20523;-83
2021/12/31 06:56:30;;;;;;;1.67;1.35;;;12.70;99.90;;;;;;5052004;28;19999;-84
2021/12/31 06:58:56;;;;;;;2.55;1.63;;;12.70;99.90;;;;;;5046688;28;20394;-83
2021/12/31 07:01:22;;;;;;;2.05;1.42;;;12.70;99.90;;;;;;5055273;28;20045;-85
2021/12/31 07:03:47;;;;;;;1.67;1.17;;;12.70;99.90;;;;;;5047759;28;20055;-83
2021/12/31 07:06:13;;;;;;;2.53;1.65;;;12.80;99.90;;;;;;5040964;28;20045;-84
2021/12/31 07:08:42;;;;;;;2.30;1.65;;;12.80;99.90;;;;;;5051081;28;20061;-84
2021/12/31 07:11:08;;;;;;;3.47;1.88;;;12.80;99.90;;;;;;5029900;28;20044;-83
2021/12/31 07:13:35;;;;;;;2.47;1.58;;;12.80;99.90;;;;;;5048108;28;20087;-84
2021/12/31 07:16:01;;;;;;;1.60;1.10;;;12.70;99.90;;;;;;5081178;28;20045;-84
2021/12/31 07:18:27;;;;;;;0.55;0.55;;;12.60;99.90;;;;;;5052679;28;20064;-82
2021/12/31 07:20:53;;;;;;;2.17;1.40;;;12.60;99.90;;;;;;5046960;28;20041;-83
2021/12/31 07:23:20;;;;;;;9.27;1.60;;;12.50;99.90;;;;;;5058015;28;20119;-85
2021/12/31 07:25:46;;;;;;;1.98;1.45;;;12.50;99.90;;;;;;5052735;28;20425;-82
2021/12/31 07:28:14;;;;;;;1.67;1.25;;;12.50;99.90;;;;;;5053348;28;20044;-82
2021/12/31 07:30:40;;;;;;;3.67;1.77;;;12.50;99.90;;;;;;5053559;28;20075;-80
2021/12/31 07:33:14;;;;;;;2.33;1.20;;;12.60;99.90;;;;;;5036680;28;20081;-82
2021/12/31 07:35:40;;;;;;;1.33;1.08;;;12.60;99.90;;;;;;5041309;28;20112;-83
2021/12/31 07:38:06;;;;;;;1.42;1.10;;;12.50;99.90;;;;;;5057110;28;20072;-83
2021/12/31 07:40:41;;;;;;;2.50;1.77;;;12.40;99.90;;;;;;5058348;28;20843;-81
2021/12/31 07:43:09;;;;;;;5.90;1.23;;;12.50;99.90;;;;;;5054937;28;20048;-82
2021/12/31 07:45:35;;;;;;;1.35;1.20;;;12.40;99.90;;;;;;5052035;28;20065;-84
2021/12/31 07:48:02;;;;;;;2.70;1.60;;;12.30;99.90;;;;;;5057169;28;20037;-84
2021/12/31 07:50:29;;;;;;;1.85;1.40;;;12.20;99.90;;;;;;5040202;28;20632;-82
2021/12/31 07:52:55;;;;;;;4.57;1.30;;;12.30;99.90;;;;;;5065595;28;20102;-81
2021/12/31 07:55:20;;;;;;;2.75;1.30;;;12.30;99.90;;;;;;5052000;28;20041;-81
2021/12/31 07:57:46;;;;;;;2.00;1.23;;;12.40;99.90;;;;;;5030468;28;20037;-82
2021/12/31 08:00:12;;;;;;;2.55;1.70;;;12.50;99.90;;;;;;5052166;28;20041;-80
2021/12/31 08:02:38;;;;;;;1.15;0.98;;;12.50;99.90;;;;;;5054033;28;20429;-81
2021/12/31 08:05:04;;;;;;;2.75;1.27;;;12.50;99.90;;;;;;5054363;28;20116;-81
2021/12/31 08:07:30;;;;;;;;;;;12.50;99.90;;;;;;5047017;28;20037;-82
2021/12/31 08:09:56;;;;;;;3.42;1.80;;;12.50;99.90;;;;;;5075123;28;20424;-81
2021/12/31 08:12:22;;;;;;;3.03;1.58;;;12.50;99.90;;;;;;5029043;28;20040;-82
2021/12/31 08:14:47;;;;;;;2.15;1.40;;;12.60;99.90;;;;;;5052310;28;20056;-85
2021/12/31 08:17:13;;;;;;;1.55;1.10;;;12.50;99.90;;;;;;5036285;28;20048;-81
2021/12/31 08:19:39;;;;;;;2.40;1.60;;;12.50;99.90;;;;;;5051529;28;20048;-82
2021/12/31 08:22:05;;;;;;;4.38;1.50;;;12.50;99.90;;;;;;5018690;28;20063;-81
2021/12/31 08:24:30;;;;;;;2.45;1.90;;;12.50;99.90;;;;;;5024113;28;20061;-85
2021/12/31 08:26:56;;;;;;;5.38;1.35;;;12.50;99.90;;;;;;5036909;28;20493;-82
2021/12/31 08:29:22;;;;;;;0.93;0.85;;;12.60;99.90;;;;;;5034254;28;20048;-81
2021/12/31 08:31:48;;;;;;;3.17;1.92;;;12.60;99.90;;;;;;5044054;28;20040;-81
2021/12/31 08:34:13;;;;;;;1.48;1.10;;;12.60;99.90;;;;;;5050718;28;20548;-83
2021/12/31 08:36:39;;;;;;;3.20;1.90;;;12.60;99.90;;;;;;5048120;28;20043;-83
2021/12/31 08:39:12;;;;;;;1.20;1.08;;;12.60;99.90;;;;;;5051328;28;20087;-83
2021/12/31 08:41:40;;;;;;;2.70;1.50;;;12.70;99.90;;;;;;5051191;28;20041;-83
2021/12/31 08:44:07;;;;;;;2.75;1.40;;;12.60;99.90;;;;;;5059772;28;20054;-82
2021/12/31 08:46:35;;;;;;;1.20;0.93;;;12.60;99.90;;;;;;5041138;28;20048;-83
2021/12/31 08:49:02;;;;;;;1.92;1.38;;;12.60;99.90;;;;;;5045749;28;20076;-82
2021/12/31 08:51:27;;;;;;;1.13;1.02;;;12.60;99.90;;;;;;5050634;28;20125;-82
2021/12/31 08:53:55;;;;;;;3.80;2.55;;;12.60;99.90;;;;;;5055926;28;20124;-83
2021/12/31 08:56:21;;;;;;;1.25;1.15;;;12.70;99.90;;;;;;5032270;28;20047;-84
2021/12/31 08:58:47;;;;;;;1.90;1.08;;;12.70;99.90;;;;;;5032881;28;20037;-81
2021/12/31 09:01:13;;;;;;;2.20;1.33;;;12.60;99.90;;;;;;5051975;28;20151;-81
2021/12/31 09:03:39;;;;;;;7.32;1.70;;;12.60;99.90;;;;;;5030974;28;20071;-84
2021/12/31 09:06:05;;;;;;;3.30;1.80;;;12.60;99.90;;;;;;5048501;28;20063;-84
2021/12/31 09:08:31;;;;;;;6.88;2.00;;;12.70;99.90;;;;;;5048682;28;20045;-83
2021/12/31 09:10:57;;;;;;;4.13;2.38;;;12.60;99.90;;;;;;5040921;28;20040;-78
2021/12/31 09:13:23;;;;;;;3.40;1.63;;;12.70;99.90;;;;;;5032791;28;20228;-84
2021/12/31 09:15:48;;;;;;;1.50;0.95;;;12.70;99.90;;;;;;5039515;28;20124;-79
2021/12/31 09:18:16;;;;;;;2.03;1.48;;;12.70;99.90;;;;;;5015102;28;20041;-82
2021/12/31 09:20:44;;;;;;;2.85;1.60;;;12.70;99.90;;;;;;5050989;28;20520;-81
2021/12/31 09:23:09;;;;;;;2.17;1.42;;;12.80;99.90;;;;;;5050486;28;20064;-78
2021/12/31 09:25:35;;;;;;;6.18;1.85;;;12.60;99.90;;;;;;5050143;28;20051;-78
2021/12/31 09:28:01;;;;;;;4.07;1.50;;;12.70;99.90;;;;;;5036650;28;20045;-81
2021/12/31 09:30:27;;;;;;;2.78;1.80;;;12.70;99.90;;;;;;5046675;28;20041;-81
2021/12/31 09:32:53;;;;;;;3.50;2.40;;;12.60;99.90;;;;;;5051457;28;20045;-77
2021/12/31 09:35:19;;;;;;;4.40;1.92;;;12.70;99.90;;;;;;5042700;28;20440;-78
2021/12/31 09:37:44;;;;;;;1.77;1.20;;;12.60;99.90;;;;;;5048172;28;20067;-79
2021/12/31 09:40:11;;;;;;;2.47;1.35;;;12.60;99.90;;;;;;5048027;28;20033;-80
2021/12/31 09:42:38;;;;;;;3.13;2.33;;;12.60;99.90;;;;;;5049502;28;20048;-78
2021/12/31 09:45:05;;;;;;;6.65;1.77;;;12.60;99.90;;;;;;5046901;28;20068;-78
2021/12/31 09:47:31;;;;;;;3.15;2.10;;;12.60;99.90;;;;;;5032346;28;20163;-80
2021/12/31 09:49:56;;;;;;;4.18;2.25;;;12.70;99.90;;;;;;5045287;28;20048;-81
2021/12/31 09:52:27;;;;;;;6.35;3.10;;;12.70;99.90;;;;;;5045364;28;20036;-78
2021/12/31 09:54:53;;;;;;;3.50;1.98;;;12.70;99.90;;;;;;5047126;28;20048;-75
2021/12/31 09:57:20;;;;;;;3.28;2.33;;;12.60;99.90;;;;;;5031587;28;20046;-76
2021/12/31 10:00:02;;;;;;;3.65;2.08;;;12.70;99.90;;;;;;5053026;28;20039;-82
2021/12/31 10:02:33;;;;;;;3.10;1.85;;;12.70;99.90;;;;;;5042539;28;20699;-82
2021/12/31 10:05:01;;;;;;;3.08;1.83;;;12.60;99.90;;;;;;5027641;28;20108;-80
2021/12/31 10:07:30;;;;;;;1.80;1.40;;;12.40;99.90;;;;;;5047005;28;20045;-80
2021/12/31 10:10:17;;;;;;;3.97;2.10;;;12.20;99.90;;;;;;5029789;28;20064;-80
2021/12/31 10:12:53;;;;;;;4.15;2.28;;;12.10;99.90;;;;;;5035400;28;20041;-82
2021/12/31 10:15:24;;;;;;;6.22;2.60;;;12.00;99.90;;;;;;5042843;28;21749;-82
2021/12/31 10:17:51;;;;;;;3.38;2.15;;;11.80;99.90;;;;;;5054456;28;20079;-80
2021/12/31 10:20:19;;;;;;;6.88;2.75;;;11.70;99.90;;;;;;5027712;28;20151;-77
2021/12/31 10:22:46;;;;;;;8.20;3.05;;;11.60;99.90;;;;;;5038559;28;20060;-79
2021/12/31 10:25:17;;;;;;;10.55;2.83;;;11.60;99.90;;;;;;5026106;28;20067;-79
2021/12/31 10:27:43;;;;;;;5.05;2.85;;;11.60;99.90;;;;;;5041167;28;20384;-79
2021/12/31 10:30:09;;;;;;;4.05;2.90;;;10.30;99.90;;;;;;5009627;28;20049;-80
2021/12/31 10:32:40;;;;;;;3.92;2.80;;;11.50;99.90;;;;;;5039913;28;20053;-79
2021/12/31 10:35:22;;;;;;;5.07;2.92;;;11.60;99.90;;;;;;5046550;28;20123;-77
2021/12/31 10:37:52;;;;;;;4.85;2.60;;;11.60;99.90;;;;;;5076343;28;20052;-83
2021/12/31 10:40:40;;;;;;;;;;;;;;;;;;;;;
2021/12/31 10:43:29;;;;;;;5.90;2.20;;;11.60;99.90;;;;;;5041707;28;20044;-82
2021/12/31 10:46:10;;;;;;;2.67;1.13;;;11.60;99.90;;;;;;5039772;28;20052;-79
2021/12/31 10:48:47;;;;;;;2.42;1.58;;;11.60;99.90;;;;;;5051218;28;20041;-81
2021/12/31 10:51:14;;;;;;;;;;;11.70;99.90;;;;;;5048732;28;20049;-82
2021/12/31 10:53:41;;;;;;;2.47;2.03;;;11.70;99.90;;;;;;5077063;28;19925;-77
2021/12/31 10:56:09;;;;;;;2.35;1.90;;;11.70;99.90;;;;;;5035512;28;20293;-81
2021/12/31 10:58:37;;;;;;;6.90;2.30;;;11.70;99.90;;;;;;5038221;28;20130;-82
2021/12/31 11:01:08;;;;;;;4.07;2.38;;;11.70;99.90;;;;;;5047264;28;20044;-82
2021/12/31 11:03:35;;;;;;;2.97;2.42;;;11.70;99.90;;;;;;5047345;28;20055;-80
2021/12/31 11:06:02;;;;;;;4.68;2.90;;;11.70;99.90;;;;;;5038541;28;20502;-80
2021/12/31 11:08:29;;;;;;;2.60;1.77;;;11.70;99.90;;;;;;5037926;28;20059;-79
2021/12/31 11:10:56;;;;;;;2.95;1.60;;;11.70;99.90;;;;;;5045533;28;20056;-79
2021/12/31 11:13:28;;;;;;;2.75;1.90;;;11.70;99.90;;;;;;5047464;28;20667;-79
2021/12/31 11:15:55;;;;;;;2.45;1.90;;;11.70;99.90;;;;;;5053863;28;20040;-79
2021/12/31 11:18:23;;;;;;;2.47;2.00;;;11.70;99.90;;;;;;5015205;28;20064;-79
2021/12/31 11:20:54;;;;;;;2.88;1.92;;;11.60;99.90;;;;;;5045603;28;20106;-78
2021/12/31 11:23:27;;;;;;;2.90;1.95;;;11.60;99.90;;;;;;5021768;28;20065;-79
2021/12/31 11:25:58;;;;;;;4.18;2.88;;;11.60;99.90;;;;;;5041302;28;20455;-81
2021/12/31 11:28:32;;;;;;;2.60;1.85;;;11.50;99.90;;;;;;5042663;28;20529;-78
2021/12/31 11:31:17;;;;;;;3.50;2.10;;;11.50;99.90;;;;;;5039762;28;20095;-80
2021/12/31 11:33:45;;;;;;;4.03;2.40;;;11.40;99.90;;;;;;5062282;28;20125;-81
2021/12/31 11:36:12;;;;;;;3.50;2.78;;;11.40;99.90;;;;;;5036588;28;20041;-79
2021/12/31 11:38:39;;;;;;;2.42;2.03;;;11.30;99.90;;;;;;5046342;28;20044;-80
2021/12/31 11:41:08;;;;;;;4.95;3.63;;;11.30;99.90;;;;;;5032892;28;20468;-79
2021/12/31 11:43:37;;;;;;;4.50;2.30;;;11.40;99.90;;;;;;5036811;28;20076;-82
2021/12/31 11:46:12;;;;;;;2.15;1.90;;;11.40;99.90;;;;;;5058586;28;20045;-83
2021/12/31 11:48:48;;;;;;;7.70;2.72;;;11.30;99.90;;;;;;5048488;28;20413;-80
2021/12/31 11:51:24;;;;;;;5.07;2.65;;;11.70;99.90;;;;;;5026068;28;20041;-83
2021/12/31 11:53:58;;;;;;;2.88;2.10;;;11.20;99.90;;;;;;5059559;28;20725;-83
2021/12/31 11:56:34;;;;;;;3.65;2.42;;;11.20;99.90;;;;;;5042231;28;20825;-80
2021/12/31 11:59:20;;;;;;;6.18;3.65;;;11.20;99.90;;;;;;5045665;28;20044;-80
2021/12/31 12:01:47;;;;;;;3.20;2.42;;;11.20;99.90;;;;;;5032305;28;20049;-79
2021/12/31 12:04:42;;;;;;;11.00;2.85;;;11.30;99.90;;;;;;5039646;28;20057;-81
2021/12/31 12:07:40;;;;;;;7.03;2.58;;;11.20;99.90;;;;;;5027159;28;20095;-77
2021/12/31 12:10:06;;;;;;;7.03;3.22;;;11.20;99.90;;;;;;5042588;28;20914;-79
2021/12/31 12:12:37;;;;;;;4.30;3.13;;;11.30;99.90;;;;;;5022637;28;20128;-80
2021/12/31 12:15:24;;;;;;;2.55;2.00;;;11.30;99.90;;;;;;5028495;28;20084;-76
2021/12/31 12:17:49;;;;;;;;;;;11.20;99.90;;;;;;5049989;28;20442;-79
2021/12/31 12:20:19;;;;;;;3.80;2.85;;;11.30;99.90;;;;;;5011281;28;19927;-80
2021/12/31 12:22:50;;;;;;;3.92;2.88;;;11.20;99.90;;;;;;5045209;28;20159;-82
2021/12/31 12:25:22;;;;;;;3.05;1.85;;;11.30;99.90;;;;;;5043263;28;20053;-77
2021/12/31 12:28:02;;;;;;;3.78;1.77;;;11.30;99.90;;;;;;5043319;28;20057;-80
2021/12/31 12:30:29;;;;;;;2.78;2.10;;;11.30;99.90;;;;;;5029844;28;20045;-81
2021/12/31 12:33:16;;;;;;;6.60;3.10;;;11.30;99.90;;;;;;5048162;28;20041;-79
2021/12/31 12:35:47;;;;;;;6.70;2.25;;;11.20;99.90;;;;;;5030712;28;20049;-77
2021/12/31 12:38:19;;;;;;;4.07;2.90;;;11.30;99.90;;;;;;5028294;28;20044;-78
2021/12/31 12:40:59;;;;;;;4.55;3.20;;;11.30;99.90;;;;;;5035174;28;20045;-79
2021/12/31 12:43:30;;;;;;;5.68;1.50;;;11.30;99.90;;;;;;5075725;28;20347;-79
2021/12/31 12:46:03;;;;;;;3.13;2.25;;;11.20;99.90;;;;;;5022430;28;20056;-83
2021/12/31 12:48:39;;;;;;;2.80;2.15;;;11.20;99.90;;;;;;5012621;28;20037;-76
2021/12/31 12:51:11;;;;;;;2.75;2.30;;;11.20;99.90;;;;;;5021190;28;20387;-79
2021/12/31 12:53:39;;;;;;;2.97;2.28;;;11.20;99.90;;;;;;5025980;28;20482;-76
2021/12/31 12:56:16;;;;;;;4.07;2.42;;;11.30;99.90;;;;;;5043331;28;20381;-81
2021/12/31 12:58:53;;;;;;;2.42;1.67;;;11.20;99.90;;;;;;5029458;28;20041;-80